createdAt,value
2022-11-26T00:02:50.864Z,13.70
2022-11-26T00:05:57.424Z,13.70
2022-11-26T00:09:00.649Z,13.70
2022-11-26T00:12:31.181Z,13.70
2022-11-26T00:15:33.541Z,13.70
2022-11-26T00:18:35.549Z,13.70
2022-11-26T00:21:40.399Z,13.60
2022-11-26T00:24:42.467Z,13.60
2022-11-26T00:27:44.673Z,13.50
2022-11-26T00:30:46.939Z,13.50
2022-11-26T00:33:50.127Z,13.50
2022-11-26T00:36:52.352Z,13.40
2022-11-26T00:39:55.711Z,13.40
2022-11-26T00:43:01.678Z,13.30
2022-11-26T00:46:04.370Z,13.30
2022-11-26T00:49:06.412Z,13.20
2022-11-26T00:52:34.138Z,13.10
2022-11-26T00:55:41.671Z,13.10
2022-11-26T00:58:44.271Z,13.00
2022-11-26T01:01:46.406Z,12.90
2022-11-26T01:04:48.502Z,12.90
2022-11-26T01:07:51.928Z,12.90
2022-11-26T01:10:54.125Z,12.80
2022-11-26T01:13:56.361Z,12.80
2022-11-26T01:16:59.013Z,12.80
2022-11-26T01:20:01.257Z,12.80
2022-11-26T01:23:03.348Z,12.70
2022-11-26T01:26:06.718Z,12.70
2022-11-26T01:29:19.291Z,12.70
2022-11-26T01:32:24.153Z,12.70
2022-11-26T01:35:30.203Z,12.70
2022-11-26T01:38:32.156Z,12.60
2022-11-26T01:41:55.599Z,12.60
2022-11-26T01:44:57.609Z,12.60
2022-11-26T01:47:59.745Z,12.50
2022-11-26T01:51:12.450Z,12.50
2022-11-26T01:54:15.482Z,12.50
2022-11-26T01:57:21.945Z,12.50
2022-11-26T02:00:24.125Z,12.50
2022-11-26T02:03:28.243Z,12.50
2022-11-26T02:06:34.985Z,12.50
2022-11-26T02:09:37.215Z,12.50
2022-11-26T02:12:44.537Z,12.60
2022-11-26T02:16:09.281Z,12.60
2022-11-26T02:19:51.308Z,12.50
2022-11-26T02:23:28.707Z,12.50
2022-11-26T02:26:49.195Z,12.50
2022-11-26T02:30:12.311Z,12.50
2022-11-26T02:33:18.327Z,12.50
2022-11-26T02:36:29.967Z,12.50
2022-11-26T02:39:32.389Z,12.40
2022-11-26T02:42:36.004Z,12.40
2022-11-26T02:45:41.050Z,12.40
2022-11-26T02:48:47.333Z,12.40
2022-11-26T02:51:54.783Z,12.30
2022-11-26T02:54:57.493Z,12.30
2022-11-26T02:58:00.340Z,12.30
2022-11-26T03:01:07.840Z,12.30
2022-11-26T03:04:15.456Z,12.30
2022-11-26T03:07:18.744Z,12.40
2022-11-26T03:10:27.159Z,12.30
2022-11-26T03:13:29.172Z,12.40
2022-11-26T03:16:31.589Z,12.30
2022-11-26T03:19:33.716Z,12.40
2022-11-26T03:22:36.056Z,12.30
2022-11-26T03:25:38.203Z,12.30
2022-11-26T03:28:40.206Z,12.40
2022-11-26T03:31:42.497Z,12.40
2022-11-26T03:34:44.583Z,12.30
2022-11-26T03:37:46.597Z,12.30
2022-11-26T03:41:00.680Z,12.40
2022-11-26T03:44:02.796Z,12.40
2022-11-26T03:47:04.894Z,12.30
2022-11-26T03:50:07.712Z,12.30
2022-11-26T03:53:09.850Z,12.30
2022-11-26T03:56:11.961Z,12.30
2022-11-26T03:59:13.957Z,12.20
2022-11-26T04:02:15.990Z,12.20
2022-11-26T04:05:18.194Z,12.10
2022-11-26T04:08:20.132Z,12.00
2022-11-26T04:11:22.142Z,12.00
2022-11-26T04:14:26.238Z,11.90
2022-11-26T04:17:28.417Z,11.90
2022-11-26T04:20:30.438Z,11.80
2022-11-26T04:23:32.433Z,11.70
2022-11-26T04:26:34.499Z,11.60
2022-11-26T04:29:37.566Z,11.50
2022-11-26T04:32:40.097Z,11.50
2022-11-26T04:35:43.773Z,11.50
2022-11-26T04:38:45.798Z,11.50
2022-11-26T04:41:47.941Z,11.40
2022-11-26T04:44:49.998Z,11.40
2022-11-26T04:47:52.147Z,11.40
2022-11-26T04:50:54.159Z,11.30
2022-11-26T04:53:56.536Z,11.30
2022-11-26T04:56:59.701Z,11.30
2022-11-26T05:00:02.379Z,11.20
2022-11-26T05:03:04.507Z,11.20
2022-11-26T05:06:07.277Z,11.20
2022-11-26T05:09:09.432Z,11.20
2022-11-26T05:12:12.851Z,11.20
2022-11-26T05:15:27.125Z,11.20
2022-11-26T05:18:29.813Z,11.20
2022-11-26T05:21:32.017Z,11.20
2022-11-26T05:24:34.052Z,11.20
2022-11-26T05:27:36.655Z,11.20
2022-11-26T05:30:38.795Z,11.20
2022-11-26T05:33:41.213Z,11.20
2022-11-26T05:36:43.307Z,11.20
2022-11-26T05:39:46.487Z,11.10
2022-11-26T05:42:48.707Z,11.10
2022-11-26T05:45:50.781Z,11.10
2022-11-26T05:48:53.029Z,11.10
2022-11-26T05:51:55.290Z,11.10
2022-11-26T05:54:57.338Z,11.10
2022-11-26T05:57:59.348Z,11.10
2022-11-26T06:01:01.509Z,11.00
2022-11-26T06:04:03.751Z,11.00
2022-11-26T06:07:05.808Z,11.10
2022-11-26T06:10:08.889Z,11.00
2022-11-26T06:13:12.095Z,11.00
2022-11-26T06:16:15.313Z,11.00
2022-11-26T06:19:17.615Z,11.00
2022-11-26T06:22:19.774Z,10.90
2022-11-26T06:25:22.807Z,10.80
2022-11-26T06:28:24.919Z,10.80
2022-11-26T06:31:27.112Z,10.80
2022-11-26T06:34:29.412Z,10.80
2022-11-26T06:37:32.576Z,10.80
2022-11-26T06:40:34.734Z,10.70
2022-11-26T06:43:37.208Z,10.80
2022-11-26T06:46:47.817Z,10.70
2022-11-26T06:49:55.135Z,10.70
2022-11-26T06:52:57.186Z,10.70
2022-11-26T06:56:07.127Z,10.70
2022-11-26T06:59:09.243Z,10.70
2022-11-26T07:02:11.982Z,10.70
2022-11-26T07:05:14.133Z,10.70
2022-11-26T07:08:17.122Z,10.70
2022-11-26T07:11:19.649Z,10.70
2022-11-26T07:14:22.752Z,10.70
2022-11-26T07:17:28.940Z,10.70
2022-11-26T07:20:31.244Z,10.70
2022-11-26T07:23:34.656Z,10.70
2022-11-26T07:26:36.763Z,10.70
2022-11-26T07:29:38.886Z,10.60
2022-11-26T07:32:41.003Z,10.60
2022-11-26T07:35:43.390Z,10.70
2022-11-26T07:38:46.213Z,10.70
2022-11-26T07:41:48.357Z,10.70
2022-11-26T07:44:51.015Z,10.80
2022-11-26T07:47:53.016Z,10.80
2022-11-26T07:50:55.003Z,10.90
2022-11-26T07:53:59.335Z,11.60
2022-11-26T07:57:01.339Z,12.50
2022-11-26T08:00:04.595Z,13.60
2022-11-26T08:03:06.710Z,14.80
2022-11-26T08:06:10.575Z,16.00
2022-11-26T08:09:12.528Z,17.10
2022-11-26T08:12:15.212Z,17.90
2022-11-26T08:15:17.481Z,18.60
2022-11-26T08:18:22.787Z,18.90
2022-11-26T08:21:25.145Z,19.50
2022-11-26T08:24:27.219Z,20.20
2022-11-26T08:27:32.886Z,20.90
2022-11-26T08:30:34.871Z,21.70
2022-11-26T08:33:37.568Z,22.30
2022-11-26T08:36:40.952Z,22.80
2022-11-26T08:39:42.925Z,23.10
2022-11-26T08:42:44.900Z,23.50
2022-11-26T08:45:57.186Z,23.90
2022-11-26T08:48:59.450Z,24.50
2022-11-26T08:52:01.551Z,25.20
2022-11-26T08:55:04.461Z,25.60
2022-11-26T08:58:06.603Z,25.80
2022-11-26T09:01:16.222Z,25.90
2022-11-26T09:04:18.347Z,25.20
2022-11-26T09:07:20.595Z,25.40
2022-11-26T09:10:22.695Z,26.20
2022-11-26T09:13:24.775Z,26.20
2022-11-26T09:16:27.067Z,26.80
2022-11-26T09:19:29.446Z,26.80
2022-11-26T09:22:31.521Z,26.60
2022-11-26T09:25:33.657Z,26.30
2022-11-26T09:28:35.805Z,26.40
2022-11-26T09:31:46.011Z,26.70
2022-11-26T09:35:00.406Z,26.60
2022-11-26T09:38:02.871Z,26.90
2022-11-26T09:41:42.389Z,27.30
2022-11-26T09:44:54.455Z,27.70
2022-11-26T09:47:56.764Z,28.10
2022-11-26T09:51:09.420Z,27.90
2022-11-26T09:54:18.412Z,27.70
2022-11-26T09:57:23.412Z,27.50
2022-11-26T10:00:39.451Z,27.50
2022-11-26T10:03:42.468Z,27.70
2022-11-26T10:06:50.462Z,27.70
2022-11-26T10:10:05.268Z,27.40
2022-11-26T10:13:41.251Z,27.20
2022-11-26T10:17:17.173Z,26.80
2022-11-26T10:20:34.250Z,27.30
2022-11-26T10:23:50.823Z,27.20
2022-11-26T10:26:54.305Z,26.80
2022-11-26T10:30:02.027Z,27.20
2022-11-26T10:33:07.492Z,27.70
2022-11-26T10:36:22.640Z,28.20
2022-11-26T10:39:24.788Z,28.40
2022-11-26T10:42:40.015Z,28.60
2022-11-26T10:46:02.488Z,29.00
2022-11-26T10:49:31.021Z,28.50
2022-11-26T10:52:34.379Z,29.30
2022-11-26T10:55:41.899Z,29.80
2022-11-26T10:58:45.531Z,30.10
2022-11-26T11:01:51.540Z,29.90
2022-11-26T11:04:59.155Z,29.30
2022-11-26T11:08:01.387Z,29.20
2022-11-26T11:11:05.134Z,28.80
2022-11-26T11:14:42.229Z,28.40
2022-11-26T11:17:46.867Z,28.80
2022-11-26T11:21:14.594Z,29.00
2022-11-26T11:24:29.703Z,28.50
2022-11-26T11:27:43.708Z,28.20
2022-11-26T11:30:46.480Z,28.20
2022-11-26T11:33:50.079Z,28.10
2022-11-26T11:37:18.708Z,28.00
2022-11-26T11:40:25.644Z,27.90
2022-11-26T11:43:28.072Z,26.80
2022-11-26T11:46:54.825Z,25.10
2022-11-26T11:50:30.725Z,23.60
2022-11-26T11:53:47.957Z,22.50
2022-11-26T11:57:01.302Z,21.60
2022-11-26T12:00:18.807Z,20.50
2022-11-26T12:03:49.867Z,19.80
2022-11-26T12:06:54.812Z,19.40
2022-11-26T12:10:32.496Z,19.10
2022-11-26T12:13:45.658Z,19.00
2022-11-26T12:16:53.187Z,18.40
2022-11-26T12:20:04.499Z,18.40
2022-11-26T12:23:24.380Z,18.10
2022-11-26T12:26:32.884Z,18.10
2022-11-26T12:29:53.336Z,18.00
2022-11-26T12:33:02.634Z,17.90
2022-11-26T12:36:24.478Z,17.80
2022-11-26T12:39:49.198Z,17.70
2022-11-26T12:43:04.083Z,17.80
2022-11-26T12:46:13.703Z,17.80
2022-11-26T12:49:37.486Z,17.50
2022-11-26T12:53:10.097Z,17.40
2022-11-26T12:56:31.829Z,17.30
2022-11-26T13:00:15.193Z,17.20
2022-11-26T13:03:23.140Z,17.20
2022-11-26T13:06:37.002Z,17.20
2022-11-26T13:10:05.301Z,17.10
2022-11-26T13:13:49.387Z,16.90
2022-11-26T13:17:02.622Z,16.80
2022-11-26T13:20:35.067Z,16.90
2022-11-26T13:23:53.979Z,16.90
2022-11-26T13:27:14.279Z,17.00
2022-11-26T13:30:23.966Z,17.00
2022-11-26T13:33:50.951Z,17.10
2022-11-26T13:37:17.745Z,17.00
2022-11-26T13:40:25.996Z,17.00
2022-11-26T13:43:39.999Z,16.90
2022-11-26T13:46:47.142Z,17.10
2022-11-26T13:50:02.563Z,17.10
2022-11-26T13:53:12.539Z,17.20
2022-11-26T13:56:16.294Z,17.30
2022-11-26T13:59:27.979Z,17.40
2022-11-26T14:02:33.882Z,17.30
2022-11-26T14:06:02.391Z,17.30
2022-11-26T14:09:27.146Z,17.40
2022-11-26T14:13:03.370Z,17.40
2022-11-26T14:16:08.458Z,17.50
2022-11-26T14:19:10.860Z,17.50
2022-11-26T14:22:21.961Z,17.50
2022-11-26T14:25:53.389Z,17.50
2022-11-26T14:29:07.343Z,17.50
2022-11-26T14:32:16.931Z,17.50
2022-11-26T14:35:33.901Z,17.70
2022-11-26T14:38:36.559Z,17.80
2022-11-26T14:41:41.608Z,17.80
2022-11-26T14:44:44.022Z,17.80
2022-11-26T14:47:51.441Z,17.80
2022-11-26T14:50:55.087Z,17.80
2022-11-26T14:53:58.683Z,17.90
2022-11-26T14:57:22.111Z,18.00
2022-11-26T15:00:30.175Z,18.00
2022-11-26T15:03:32.741Z,18.00
2022-11-26T15:06:43.063Z,18.00
2022-11-26T15:09:45.058Z,17.80
2022-11-26T15:12:51.265Z,17.80
2022-11-26T15:15:55.796Z,17.70
2022-11-26T15:18:58.884Z,17.80
2022-11-26T15:22:04.891Z,17.80
2022-11-26T15:25:21.395Z,17.80
2022-11-26T15:28:24.480Z,17.80
2022-11-26T15:31:42.995Z,17.80
2022-11-26T15:34:46.178Z,17.80
2022-11-26T15:37:48.354Z,17.80
2022-11-26T15:40:55.733Z,17.80
2022-11-26T15:43:59.416Z,17.80
2022-11-26T15:47:02.508Z,17.80
2022-11-26T15:50:05.267Z,17.70
2022-11-26T15:53:14.197Z,17.80
2022-11-26T15:56:19.989Z,17.70
2022-11-26T15:59:24.932Z,17.70
2022-11-26T16:02:29.360Z,17.70
2022-11-26T16:05:38.877Z,17.70
2022-11-26T16:09:07.924Z,17.70
2022-11-26T16:12:29.206Z,17.70
2022-11-26T16:15:31.516Z,17.70
2022-11-26T16:18:47.744Z,17.70
2022-11-26T16:21:51.973Z,17.70
2022-11-26T16:25:07.317Z,17.70
2022-11-26T16:28:14.183Z,17.70
2022-11-26T16:31:17.554Z,17.70
2022-11-26T16:34:20.309Z,17.60
2022-11-26T16:37:23.522Z,17.60
2022-11-26T16:40:26.315Z,17.60
2022-11-26T16:43:29.819Z,17.60
2022-11-26T16:46:34.641Z,17.50
2022-11-26T16:49:36.886Z,17.50
2022-11-26T16:52:39.313Z,17.40
2022-11-26T16:55:41.445Z,17.30
2022-11-26T16:58:44.126Z,17.20
2022-11-26T17:01:46.488Z,17.20
2022-11-26T17:04:49.060Z,17.10
2022-11-26T17:07:57.430Z,17.00
2022-11-26T17:10:59.756Z,17.00
2022-11-26T17:14:01.826Z,16.90
2022-11-26T17:17:04.193Z,16.80
2022-11-26T17:20:22.412Z,16.70
2022-11-26T17:23:24.500Z,16.60
2022-11-26T17:26:26.703Z,16.60
2022-11-26T17:29:28.866Z,16.50
2022-11-26T17:32:30.883Z,16.40
2022-11-26T17:35:33.047Z,16.30
2022-11-26T17:38:35.028Z,16.30
2022-11-26T17:41:37.290Z,16.20
2022-11-26T17:44:39.426Z,16.20
2022-11-26T17:47:41.983Z,16.20
2022-11-26T17:50:44.080Z,16.10
2022-11-26T17:53:46.612Z,16.10
2022-11-26T17:56:48.694Z,16.00
2022-11-26T17:59:50.960Z,16.00
2022-11-26T18:02:53.034Z,16.00
2022-11-26T18:05:55.197Z,15.90
2022-11-26T18:08:57.295Z,15.90
2022-11-26T18:12:00.649Z,15.90
2022-11-26T18:15:04.276Z,15.80
2022-11-26T18:18:07.547Z,15.80
2022-11-26T18:21:10.421Z,15.80
2022-11-26T18:24:13.642Z,15.80
2022-11-26T18:27:15.830Z,15.80
2022-11-26T18:30:18.372Z,15.80
2022-11-26T18:33:20.409Z,15.80
2022-11-26T18:36:22.459Z,15.80
2022-11-26T18:39:24.661Z,15.80
2022-11-26T18:42:37.187Z,15.80
2022-11-26T18:45:42.464Z,15.80
2022-11-26T18:48:47.169Z,15.80
2022-11-26T18:51:49.193Z,15.80
2022-11-26T18:54:51.441Z,15.70
2022-11-26T18:57:53.610Z,15.60
2022-11-26T19:00:58.725Z,15.60
2022-11-26T19:04:01.015Z,15.50
2022-11-26T19:07:03.007Z,15.40
2022-11-26T19:10:05.511Z,15.40
2022-11-26T19:13:07.661Z,15.30
2022-11-26T19:16:16.541Z,15.20
2022-11-26T19:19:19.663Z,15.10
2022-11-26T19:22:21.684Z,15.10
2022-11-26T19:25:23.673Z,15.00
2022-11-26T19:28:26.983Z,15.00
2022-11-26T19:31:30.670Z,14.90
2022-11-26T19:34:32.829Z,14.90
2022-11-26T19:37:34.910Z,14.90
2022-11-26T19:40:39.498Z,14.80
2022-11-26T19:43:42.587Z,14.80
2022-11-26T19:46:48.299Z,14.80
2022-11-26T19:49:50.657Z,14.80
2022-11-26T19:52:54.415Z,14.70
2022-11-26T19:56:02.480Z,14.70
2022-11-26T19:59:05.039Z,14.70
2022-11-26T20:02:08.669Z,14.60
2022-11-26T20:05:10.856Z,14.60
2022-11-26T20:08:13.190Z,14.60
2022-11-26T20:11:17.236Z,14.50
2022-11-26T20:14:19.437Z,14.50
2022-11-26T20:17:21.547Z,14.40
2022-11-26T20:20:24.520Z,14.40
2022-11-26T20:23:27.352Z,14.40
2022-11-26T20:26:32.981Z,14.40
2022-11-26T20:29:34.982Z,14.30
2022-11-26T20:32:38.257Z,14.30
2022-11-26T20:35:41.342Z,14.30
2022-11-26T20:38:43.830Z,14.30
2022-11-26T20:41:46.344Z,14.30
2022-11-26T20:44:48.516Z,14.20
2022-11-26T20:47:50.607Z,14.20
2022-11-26T20:50:52.655Z,14.20
2022-11-26T20:53:59.034Z,14.10
2022-11-26T20:57:01.454Z,14.10
2022-11-26T21:00:08.104Z,14.10
2022-11-26T21:03:10.485Z,14.10
2022-11-26T21:06:14.387Z,14.00
2022-11-26T21:09:16.798Z,14.10
2022-11-26T21:12:18.919Z,14.00
2022-11-26T21:15:23.175Z,14.00
2022-11-26T21:18:25.175Z,14.00
2022-11-26T21:21:28.672Z,13.90
2022-11-26T21:24:30.660Z,13.90
2022-11-26T21:27:33.858Z,13.90
2022-11-26T21:30:36.547Z,13.80
2022-11-26T21:33:38.777Z,13.80
2022-11-26T21:36:44.875Z,13.80
2022-11-26T21:39:47.415Z,13.80
2022-11-26T21:42:49.602Z,13.80
2022-11-26T21:45:51.700Z,13.80
2022-11-26T21:48:55.328Z,13.80
2022-11-26T21:51:58.447Z,13.80
2022-11-26T21:55:03.566Z,13.80
2022-11-26T21:58:05.968Z,13.80
2022-11-26T22:01:13.983Z,13.80
2022-11-26T22:04:19.503Z,13.70
2022-11-26T22:07:21.853Z,13.70
2022-11-26T22:10:24.774Z,13.70
2022-11-26T22:13:28.122Z,13.70
2022-11-26T22:16:31.302Z,13.70
2022-11-26T22:19:33.463Z,13.70
2022-11-26T22:22:35.471Z,13.70
2022-11-26T22:25:45.843Z,13.60
2022-11-26T22:28:52.637Z,13.60
2022-11-26T22:31:55.096Z,13.60
2022-11-26T22:34:57.260Z,13.60
2022-11-26T22:38:04.038Z,13.60
2022-11-26T22:41:09.032Z,13.70
2022-11-26T22:44:12.447Z,13.60
2022-11-26T22:47:17.576Z,13.60
2022-11-26T22:50:19.966Z,13.50
2022-11-26T22:53:23.565Z,13.50
2022-11-26T22:56:26.573Z,13.50
2022-11-26T22:59:28.844Z,13.50
2022-11-26T23:02:30.988Z,13.50
2022-11-26T23:05:37.776Z,13.50
2022-11-26T23:08:40.868Z,13.40
2022-11-26T23:11:43.792Z,13.40
2022-11-26T23:14:46.027Z,13.40
2022-11-26T23:17:48.043Z,13.40
2022-11-26T23:20:50.096Z,13.40
2022-11-26T23:23:52.913Z,13.40
2022-11-26T23:26:55.052Z,13.40
2022-11-26T23:29:57.025Z,13.40
2022-11-26T23:32:59.402Z,13.40
2022-11-26T23:36:02.049Z,13.40
2022-11-26T23:39:06.127Z,13.40
2022-11-26T23:42:08.175Z,13.40
2022-11-26T23:45:11.022Z,13.40
2022-11-26T23:48:13.055Z,13.40
2022-11-26T23:51:23.871Z,13.40
2022-11-26T23:54:25.944Z,13.40
2022-11-26T23:57:27.996Z,13.40
